sensor_id;sensor_type;location;lat;lon;timestamp;P1;durP1;ratioP1;P2;durP2;ratioP2
48993;SDS011;34804;49.214;12.276;2023-11-21T00:01:09;4.95;;;1.40;;
48993;SDS011;34804;49.214;12.276;2023-11-21T00:03:36;3.22;;;0.90;;
48993;SDS011;34804;49.214;12.276;2023-11-21T00:06:03;3.80;;;1.08;;
48993;SDS011;34804;49.214;12.276;2023-11-21T00:08:30;3.40;;;1.23;;
48993;SDS011;34804;49.214;12.276;2023-11-21T00:10:57;2.72;;;0.93;;
48993;SDS011;34804;49.214;12.276;2023-11-21T00:13:27;3.25;;;1.08;;
48993;SDS011;34804;49.214;12.276;2023-11-21T00:15:53;2.17;;;0.88;;
48993;SDS011;34804;49.214;12.276;2023-11-21T00:18:20;1.67;;;0.65;;
48993;SDS011;34804;49.214;12.276;2023-11-21T00:20:47;2.85;;;0.80;;
48993;SDS011;34804;49.214;12.276;2023-11-21T00:23:14;2.97;;;0.80;;
48993;SDS011;34804;49.214;12.276;2023-11-21T00:25:41;2.78;;;0.80;;
48993;SDS011;34804;49.214;12.276;2023-11-21T00:28:08;2.13;;;0.70;;
48993;SDS011;34804;49.214;12.276;2023-11-21T00:30:34;2.95;;;1.00;;
48993;SDS011;34804;49.214;12.276;2023-11-21T00:33:01;4.85;;;0.90;;
48993;SDS011;34804;49.214;12.276;2023-11-21T00:35:28;2.22;;;0.95;;
48993;SDS011;34804;49.214;12.276;2023-11-21T00:37:55;2.78;;;0.70;;
48993;SDS011;34804;49.214;12.276;2023-11-21T00:40:22;3.33;;;1.10;;
48993;SDS011;34804;49.214;12.276;2023-11-21T00:42:49;2.55;;;0.73;;
48993;SDS011;34804;49.214;12.276;2023-11-21T00:45:15;3.53;;;0.93;;
48993;SDS011;34804;49.214;12.276;2023-11-21T00:47:42;4.35;;;1.00;;
48993;SDS011;34804;49.214;12.276;2023-11-21T00:50:09;4.20;;;1.10;;
48993;SDS011;34804;49.214;12.276;2023-11-21T00:52:36;3.35;;;1.10;;
48993;SDS011;34804;49.214;12.276;2023-11-21T00:55:04;2.30;;;0.90;;
48993;SDS011;34804;49.214;12.276;2023-11-21T00:57:34;3.88;;;1.20;;
48993;SDS011;34804;49.214;12.276;2023-11-21T01:00:01;4.63;;;1.17;;
48993;SDS011;34804;49.214;12.276;2023-11-21T01:02:33;4.05;;;0.90;;
48993;SDS011;34804;49.214;12.276;2023-11-21T01:05:02;3.13;;;1.10;;
48993;SDS011;34804;49.214;12.276;2023-11-21T01:07:30;3.20;;;1.10;;
48993;SDS011;34804;49.214;12.276;2023-11-21T01:09:57;4.15;;;0.93;;
48993;SDS011;34804;49.214;12.276;2023-11-21T01:12:23;3.63;;;0.88;;
48993;SDS011;34804;49.214;12.276;2023-11-21T01:14:51;4.20;;;1.10;;
48993;SDS011;34804;49.214;12.276;2023-11-21T01:17:18;3.42;;;1.10;;
48993;SDS011;34804;49.214;12.276;2023-11-21T01:19:45;5.82;;;1.48;;
48993;SDS011;34804;49.214;12.276;2023-11-21T01:22:12;4.72;;;1.20;;
48993;SDS011;34804;49.214;12.276;2023-11-21T01:24:39;2.17;;;0.80;;
48993;SDS011;34804;49.214;12.276;2023-11-21T01:27:06;2.63;;;1.00;;
48993;SDS011;34804;49.214;12.276;2023-11-21T01:29:33;2.83;;;1.13;;
48993;SDS011;34804;49.214;12.276;2023-11-21T01:32:02;3.70;;;1.10;;
48993;SDS011;34804;49.214;12.276;2023-11-21T01:34:30;4.43;;;1.15;;
48993;SDS011;34804;49.214;12.276;2023-11-21T01:36:57;4.00;;;1.15;;
48993;SDS011;34804;49.214;12.276;2023-11-21T01:39:24;6.57;;;1.30;;
48993;SDS011;34804;49.214;12.276;2023-11-21T01:41:52;2.35;;;0.93;;
48993;SDS011;34804;49.214;12.276;2023-11-21T01:44:18;3.72;;;1.10;;
48993;SDS011;34804;49.214;12.276;2023-11-21T01:46:45;3.55;;;0.82;;
48993;SDS011;34804;49.214;12.276;2023-11-21T01:49:14;3.38;;;1.08;;
48993;SDS011;34804;49.214;12.276;2023-11-21T01:51:42;3.00;;;1.20;;
48993;SDS011;34804;49.214;12.276;2023-11-21T01:54:11;5.35;;;1.33;;
48993;SDS011;34804;49.214;12.276;2023-11-21T01:56:46;2.90;;;1.13;;
48993;SDS011;34804;49.214;12.276;2023-11-21T01:59:22;2.20;;;1.10;;
48993;SDS011;34804;49.214;12.276;2023-11-21T02:01:50;3.67;;;1.13;;
48993;SDS011;34804;49.214;12.276;2023-11-21T02:04:17;3.60;;;0.98;;
48993;SDS011;34804;49.214;12.276;2023-11-21T02:06:44;2.58;;;0.90;;
48993;SDS011;34804;49.214;12.276;2023-11-21T02:09:11;3.10;;;1.05;;
48993;SDS011;34804;49.214;12.276;2023-11-21T02:11:41;5.97;;;1.60;;
48993;SDS011;34804;49.214;12.276;2023-11-21T02:14:08;5.60;;;1.85;;
48993;SDS011;34804;49.214;12.276;2023-11-21T02:16:36;5.35;;;1.38;;
48993;SDS011;34804;49.214;12.276;2023-11-21T02:19:03;2.67;;;0.98;;
48993;SDS011;34804;49.214;12.276;2023-11-21T02:21:35;4.35;;;1.10;;
48993;SDS011;34804;49.214;12.276;2023-11-21T02:24:05;4.57;;;1.10;;
48993;SDS011;34804;49.214;12.276;2023-11-21T02:26:33;2.00;;;0.85;;
48993;SDS011;34804;49.214;12.276;2023-11-21T02:29:00;4.50;;;1.13;;
48993;SDS011;34804;49.214;12.276;2023-11-21T02:31:27;3.42;;;1.02;;
48993;SDS011;34804;49.214;12.276;2023-11-21T02:33:54;3.03;;;1.00;;
48993;SDS011;34804;49.214;12.276;2023-11-21T02:36:20;3.53;;;1.20;;
48993;SDS011;34804;49.214;12.276;2023-11-21T02:38:48;5.93;;;2.33;;
48993;SDS011;34804;49.214;12.276;2023-11-21T02:41:15;3.90;;;1.50;;
48993;SDS011;34804;49.214;12.276;2023-11-21T02:43:41;3.72;;;1.10;;
48993;SDS011;34804;49.214;12.276;2023-11-21T02:46:08;4.57;;;1.10;;
48993;SDS011;34804;49.214;12.276;2023-11-21T02:48:35;7.43;;;1.27;;
48993;SDS011;34804;49.214;12.276;2023-11-21T02:51:02;4.50;;;1.38;;
48993;SDS011;34804;49.214;12.276;2023-11-21T02:53:29;4.13;;;1.27;;
48993;SDS011;34804;49.214;12.276;2023-11-21T02:55:56;4.55;;;1.30;;
48993;SDS011;34804;49.214;12.276;2023-11-21T02:58:23;2.80;;;1.23;;
48993;SDS011;34804;49.214;12.276;2023-11-21T03:00:50;4.57;;;1.52;;
48993;SDS011;34804;49.214;12.276;2023-11-21T03:03:16;5.35;;;1.10;;
48993;SDS011;34804;49.214;12.276;2023-11-21T03:05:43;5.82;;;1.70;;
48993;SDS011;34804;49.214;12.276;2023-11-21T03:08:10;5.00;;;1.95;;
48993;SDS011;34804;49.214;12.276;2023-11-21T03:10:37;4.38;;;1.77;;
48993;SDS011;34804;49.214;12.276;2023-11-21T03:13:04;5.65;;;1.70;;
48993;SDS011;34804;49.214;12.276;2023-11-21T03:15:30;6.28;;;2.00;;
48993;SDS011;34804;49.214;12.276;2023-11-21T03:17:58;6.50;;;1.73;;
48993;SDS011;34804;49.214;12.276;2023-11-21T03:20:25;6.75;;;2.15;;
48993;SDS011;34804;49.214;12.276;2023-11-21T03:22:52;6.72;;;2.20;;
48993;SDS011;34804;49.214;12.276;2023-11-21T03:25:19;6.47;;;2.33;;
48993;SDS011;34804;49.214;12.276;2023-11-21T03:27:46;5.88;;;2.10;;
48993;SDS011;34804;49.214;12.276;2023-11-21T03:30:13;6.55;;;2.00;;
48993;SDS011;34804;49.214;12.276;2023-11-21T03:32:40;9.00;;;2.28;;
48993;SDS011;34804;49.214;12.276;2023-11-21T03:35:07;6.70;;;2.10;;
48993;SDS011;34804;49.214;12.276;2023-11-21T03:37:34;11.55;;;2.28;;
48993;SDS011;34804;49.214;12.276;2023-11-21T03:40:01;6.70;;;2.05;;
48993;SDS011;34804;49.214;12.276;2023-11-21T03:42:30;3.63;;;1.50;;
48993;SDS011;34804;49.214;12.276;2023-11-21T03:44:57;4.43;;;1.60;;
48993;SDS011;34804;49.214;12.276;2023-11-21T03:47:24;5.38;;;1.70;;
48993;SDS011;34804;49.214;12.276;2023-11-21T03:49:52;5.32;;;1.80;;
48993;SDS011;34804;49.214;12.276;2023-11-21T03:52:19;3.85;;;1.50;;
48993;SDS011;34804;49.214;12.276;2023-11-21T03:54:45;3.63;;;1.55;;
48993;SDS011;34804;49.214;12.276;2023-11-21T03:57:12;3.53;;;1.30;;
48993;SDS011;34804;49.214;12.276;2023-11-21T03:59:39;4.78;;;1.65;;
48993;SDS011;34804;49.214;12.276;2023-11-21T04:02:08;4.97;;;1.50;;
48993;SDS011;34804;49.214;12.276;2023-11-21T04:04:35;6.38;;;1.73;;
48993;SDS011;34804;49.214;12.276;2023-11-21T04:07:02;3.35;;;1.30;;
48993;SDS011;34804;49.214;12.276;2023-11-21T04:09:30;5.50;;;1.48;;
48993;SDS011;34804;49.214;12.276;2023-11-21T04:11:57;5.97;;;1.45;;
48993;SDS011;34804;49.214;12.276;2023-11-21T04:14:24;4.93;;;1.58;;
48993;SDS011;34804;49.214;12.276;2023-11-21T04:16:51;7.50;;;1.80;;
48993;SDS011;34804;49.214;12.276;2023-11-21T04:19:18;4.45;;;1.73;;
48993;SDS011;34804;49.214;12.276;2023-11-21T04:21:45;4.35;;;1.30;;
48993;SDS011;34804;49.214;12.276;2023-11-21T04:24:12;6.40;;;1.63;;
48993;SDS011;34804;49.214;12.276;2023-11-21T04:26:39;7.53;;;1.67;;
48993;SDS011;34804;49.214;12.276;2023-11-21T04:29:06;3.72;;;1.63;;
48993;SDS011;34804;49.214;12.276;2023-11-21T04:31:32;5.35;;;1.55;;
48993;SDS011;34804;49.214;12.276;2023-11-21T04:33:59;3.83;;;1.80;;
48993;SDS011;34804;49.214;12.276;2023-11-21T04:36:26;4.63;;;1.83;;
48993;SDS011;34804;49.214;12.276;2023-11-21T04:38:53;3.08;;;1.55;;
48993;SDS011;34804;49.214;12.276;2023-11-21T04:41:20;5.50;;;1.63;;
48993;SDS011;34804;49.214;12.276;2023-11-21T04:43:46;4.63;;;1.58;;
48993;SDS011;34804;49.214;12.276;2023-11-21T04:46:13;5.25;;;1.63;;
48993;SDS011;34804;49.214;12.276;2023-11-21T04:48:40;7.82;;;2.15;;
48993;SDS011;34804;49.214;12.276;2023-11-21T04:51:07;4.03;;;2.08;;
48993;SDS011;34804;49.214;12.276;2023-11-21T04:53:34;4.53;;;1.52;;
48993;SDS011;34804;49.214;12.276;2023-11-21T04:56:01;4.40;;;1.70;;
48993;SDS011;34804;49.214;12.276;2023-11-21T04:58:29;6.72;;;1.80;;
48993;SDS011;34804;49.214;12.276;2023-11-21T05:00:57;5.50;;;2.05;;
48993;SDS011;34804;49.214;12.276;2023-11-21T05:03:24;5.55;;;2.10;;
48993;SDS011;34804;49.214;12.276;2023-11-21T05:05:51;4.72;;;2.08;;
48993;SDS011;34804;49.214;12.276;2023-11-21T05:08:18;5.72;;;2.10;;
48993;SDS011;34804;49.214;12.276;2023-11-21T05:10:46;5.22;;;2.20;;
48993;SDS011;34804;49.214;12.276;2023-11-21T05:13:14;11.27;;;2.30;;
48993;SDS011;34804;49.214;12.276;2023-11-21T05:15:44;5.75;;;2.17;;
48993;SDS011;34804;49.214;12.276;2023-11-21T05:18:11;4.90;;;2.13;;
48993;SDS011;34804;49.214;12.276;2023-11-21T05:20:40;4.70;;;2.00;;
48993;SDS011;34804;49.214;12.276;2023-11-21T05:23:08;4.68;;;2.10;;
48993;SDS011;34804;49.214;12.276;2023-11-21T05:25:35;7.18;;;2.35;;
48993;SDS011;34804;49.214;12.276;2023-11-21T05:28:06;8.65;;;2.35;;
48993;SDS011;34804;49.214;12.276;2023-11-21T05:30:33;6.18;;;2.50;;
48993;SDS011;34804;49.214;12.276;2023-11-21T05:33:00;5.55;;;2.40;;
48993;SDS011;34804;49.214;12.276;2023-11-21T05:35:27;6.60;;;2.08;;
48993;SDS011;34804;49.214;12.276;2023-11-21T05:37:54;5.07;;;2.00;;
48993;SDS011;34804;49.214;12.276;2023-11-21T05:40:21;9.82;;;2.80;;
48993;SDS011;34804;49.214;12.276;2023-11-21T05:42:49;5.40;;;2.63;;
48993;SDS011;34804;49.214;12.276;2023-11-21T05:45:18;8.10;;;3.15;;
48993;SDS011;34804;49.214;12.276;2023-11-21T05:47:45;5.82;;;3.08;;
48993;SDS011;34804;49.214;12.276;2023-11-21T05:50:14;7.32;;;2.70;;
48993;SDS011;34804;49.214;12.276;2023-11-21T05:52:43;6.43;;;2.97;;
48993;SDS011;34804;49.214;12.276;2023-11-21T05:55:11;6.13;;;2.95;;
48993;SDS011;34804;49.214;12.276;2023-11-21T05:57:40;7.22;;;2.40;;
48993;SDS011;34804;49.214;12.276;2023-11-21T06:00:11;5.47;;;2.85;;
48993;SDS011;34804;49.214;12.276;2023-11-21T06:02:49;9.02;;;2.97;;
48993;SDS011;34804;49.214;12.276;2023-11-21T06:05:24;11.40;;;3.22;;
48993;SDS011;34804;49.214;12.276;2023-11-21T06:07:52;6.78;;;3.40;;
48993;SDS011;34804;49.214;12.276;2023-11-21T06:10:21;6.70;;;3.30;;
48993;SDS011;34804;49.214;12.276;2023-11-21T06:12:51;5.82;;;2.88;;
48993;SDS011;34804;49.214;12.276;2023-11-21T06:15:18;6.22;;;2.80;;
48993;SDS011;34804;49.214;12.276;2023-11-21T06:17:47;9.57;;;2.65;;
48993;SDS011;34804;49.214;12.276;2023-11-21T06:20:18;5.22;;;2.10;;
48993;SDS011;34804;49.214;12.276;2023-11-21T06:22:47;6.45;;;2.75;;
48993;SDS011;34804;49.214;12.276;2023-11-21T06:25:15;6.20;;;2.72;;
48993;SDS011;34804;49.214;12.276;2023-11-21T06:27:42;4.72;;;2.10;;
48993;SDS011;34804;49.214;12.276;2023-11-21T06:30:11;6.18;;;2.63;;
48993;SDS011;34804;49.214;12.276;2023-11-21T06:32:40;6.78;;;2.70;;
48993;SDS011;34804;49.214;12.276;2023-11-21T06:35:07;6.03;;;2.50;;
48993;SDS011;34804;49.214;12.276;2023-11-21T06:37:36;5.30;;;2.47;;
48993;SDS011;34804;49.214;12.276;2023-11-21T06:40:04;6.28;;;3.35;;
48993;SDS011;34804;49.214;12.276;2023-11-21T06:42:31;8.38;;;3.25;;
48993;SDS011;34804;49.214;12.276;2023-11-21T06:44:59;6.35;;;2.88;;
48993;SDS011;34804;49.214;12.276;2023-11-21T06:47:30;8.43;;;3.00;;
48993;SDS011;34804;49.214;12.276;2023-11-21T06:49:58;7.93;;;3.03;;
48993;SDS011;34804;49.214;12.276;2023-11-21T06:52:26;6.35;;;3.50;;
48993;SDS011;34804;49.214;12.276;2023-11-21T06:54:53;6.82;;;3.30;;
48993;SDS011;34804;49.214;12.276;2023-11-21T06:57:20;6.05;;;3.17;;
48993;SDS011;34804;49.214;12.276;2023-11-21T06:59:49;9.27;;;3.13;;
48993;SDS011;34804;49.214;12.276;2023-11-21T07:02:16;8.25;;;3.42;;
48993;SDS011;34804;49.214;12.276;2023-11-21T07:04:45;8.35;;;3.20;;
48993;SDS011;34804;49.214;12.276;2023-11-21T07:07:12;7.18;;;3.13;;
48993;SDS011;34804;49.214;12.276;2023-11-21T07:09:39;7.10;;;3.03;;
48993;SDS011;34804;49.214;12.276;2023-11-21T07:12:06;8.85;;;3.17;;
48993;SDS011;34804;49.214;12.276;2023-11-21T07:14:34;7.07;;;3.45;;
48993;SDS011;34804;49.214;12.276;2023-11-21T07:17:01;7.22;;;3.28;;
48993;SDS011;34804;49.214;12.276;2023-11-21T07:19:28;8.27;;;3.55;;
48993;SDS011;34804;49.214;12.276;2023-11-21T07:21:55;6.45;;;3.15;;
48993;SDS011;34804;49.214;12.276;2023-11-21T07:24:22;7.05;;;3.28;;
48993;SDS011;34804;49.214;12.276;2023-11-21T07:26:52;8.77;;;3.53;;
48993;SDS011;34804;49.214;12.276;2023-11-21T07:29:25;8.90;;;3.85;;
48993;SDS011;34804;49.214;12.276;2023-11-21T07:31:52;8.88;;;4.25;;
48993;SDS011;34804;49.214;12.276;2023-11-21T07:34:20;9.88;;;4.95;;
48993;SDS011;34804;49.214;12.276;2023-11-21T07:36:47;11.90;;;4.53;;
48993;SDS011;34804;49.214;12.276;2023-11-21T07:39:14;8.50;;;4.25;;
48993;SDS011;34804;49.214;12.276;2023-11-21T07:41:44;9.18;;;4.45;;
48993;SDS011;34804;49.214;12.276;2023-11-21T07:44:18;8.55;;;4.05;;
48993;SDS011;34804;49.214;12.276;2023-11-21T07:46:46;11.98;;;4.05;;
48993;SDS011;34804;49.214;12.276;2023-11-21T07:49:13;8.68;;;4.18;;
48993;SDS011;34804;49.214;12.276;2023-11-21T07:51:43;7.90;;;3.72;;
48993;SDS011;34804;49.214;12.276;2023-11-21T07:54:10;8.43;;;4.03;;
48993;SDS011;34804;49.214;12.276;2023-11-21T07:56:37;9.55;;;4.63;;
48993;SDS011;34804;49.214;12.276;2023-11-21T07:59:03;9.95;;;4.95;;
48993;SDS011;34804;49.214;12.276;2023-11-21T08:01:30;11.40;;;4.80;;
48993;SDS011;34804;49.214;12.276;2023-11-21T08:03:58;6.93;;;3.70;;
48993;SDS011;34804;49.214;12.276;2023-11-21T08:06:30;8.23;;;4.45;;
48993;SDS011;34804;49.214;12.276;2023-11-21T08:08:57;7.88;;;3.90;;
48993;SDS011;34804;49.214;12.276;2023-11-21T08:11:24;9.05;;;4.28;;
48993;SDS011;34804;49.214;12.276;2023-11-21T08:13:52;8.80;;;4.20;;
48993;SDS011;34804;49.214;12.276;2023-11-21T08:16:20;8.23;;;3.75;;
48993;SDS011;34804;49.214;12.276;2023-11-21T08:18:47;7.95;;;4.05;;
48993;SDS011;34804;49.214;12.276;2023-11-21T08:21:14;8.25;;;4.22;;
48993;SDS011;34804;49.214;12.276;2023-11-21T08:23:41;7.97;;;3.80;;
48993;SDS011;34804;49.214;12.276;2023-11-21T08:26:08;8.73;;;4.10;;
48993;SDS011;34804;49.214;12.276;2023-11-21T08:28:35;8.82;;;3.97;;
48993;SDS011;34804;49.214;12.276;2023-11-21T08:31:02;9.48;;;3.78;;
48993;SDS011;34804;49.214;12.276;2023-11-21T08:33:31;7.38;;;3.70;;
48993;SDS011;34804;49.214;12.276;2023-11-21T08:35:58;8.25;;;4.03;;
48993;SDS011;34804;49.214;12.276;2023-11-21T08:38:28;7.85;;;4.28;;
48993;SDS011;34804;49.214;12.276;2023-11-21T08:40:55;8.65;;;4.15;;
48993;SDS011;34804;49.214;12.276;2023-11-21T08:43:22;10.10;;;4.53;;
48993;SDS011;34804;49.214;12.276;2023-11-21T08:45:49;8.70;;;4.43;;
48993;SDS011;34804;49.214;12.276;2023-11-21T08:48:16;8.52;;;4.15;;
48993;SDS011;34804;49.214;12.276;2023-11-21T08:50:42;8.45;;;4.22;;
48993;SDS011;34804;49.214;12.276;2023-11-21T08:53:10;8.80;;;3.85;;
48993;SDS011;34804;49.214;12.276;2023-11-21T08:55:37;6.70;;;3.92;;
48993;SDS011;34804;49.214;12.276;2023-11-21T08:58:04;6.95;;;3.90;;
48993;SDS011;34804;49.214;12.276;2023-11-21T09:00:32;8.52;;;4.38;;
48993;SDS011;34804;49.214;12.276;2023-11-21T09:03:00;6.93;;;3.88;;
48993;SDS011;34804;49.214;12.276;2023-11-21T09:05:29;9.18;;;4.07;;
48993;SDS011;34804;49.214;12.276;2023-11-21T09:07:56;9.07;;;4.03;;
48993;SDS011;34804;49.214;12.276;2023-11-21T09:10:23;8.38;;;3.38;;
48993;SDS011;34804;49.214;12.276;2023-11-21T09:12:52;8.32;;;4.13;;
48993;SDS011;34804;49.214;12.276;2023-11-21T09:15:18;7.15;;;3.30;;
48993;SDS011;34804;49.214;12.276;2023-11-21T09:17:47;8.32;;;4.05;;
48993;SDS011;34804;49.214;12.276;2023-11-21T09:20:14;7.28;;;3.53;;
48993;SDS011;34804;49.214;12.276;2023-11-21T09:22:41;8.73;;;3.80;;
48993;SDS011;34804;49.214;12.276;2023-11-21T09:25:11;7.93;;;4.10;;
48993;SDS011;34804;49.214;12.276;2023-11-21T09:27:39;7.80;;;3.78;;
48993;SDS011;34804;49.214;12.276;2023-11-21T09:30:06;6.55;;;3.53;;
48993;SDS011;34804;49.214;12.276;2023-11-21T09:32:40;8.15;;;3.30;;
48993;SDS011;34804;49.214;12.276;2023-11-21T09:35:07;9.50;;;3.63;;
48993;SDS011;34804;49.214;12.276;2023-11-21T09:37:35;8.10;;;3.80;;
48993;SDS011;34804;49.214;12.276;2023-11-21T09:40:02;7.07;;;3.88;;
48993;SDS011;34804;49.214;12.276;2023-11-21T09:42:38;8.38;;;3.63;;
48993;SDS011;34804;49.214;12.276;2023-11-21T09:45:17;6.10;;;3.28;;
48993;SDS011;34804;49.214;12.276;2023-11-21T09:47:48;7.65;;;3.80;;
48993;SDS011;34804;49.214;12.276;2023-11-21T09:50:16;9.10;;;3.42;;
48993;SDS011;34804;49.214;12.276;2023-11-21T09:52:49;9.43;;;3.80;;
48993;SDS011;34804;49.214;12.276;2023-11-21T09:55:18;8.18;;;3.72;;
48993;SDS011;34804;49.214;12.276;2023-11-21T09:57:47;7.07;;;3.58;;
48993;SDS011;34804;49.214;12.276;2023-11-21T10:00:15;8.80;;;3.40;;
48993;SDS011;34804;49.214;12.276;2023-11-21T10:02:44;7.63;;;3.60;;
48993;SDS011;34804;49.214;12.276;2023-11-21T10:05:11;9.77;;;3.72;;
48993;SDS011;34804;49.214;12.276;2023-11-21T10:07:39;14.75;;;3.92;;
48993;SDS011;34804;49.214;12.276;2023-11-21T10:10:07;6.75;;;3.40;;
48993;SDS011;34804;49.214;12.276;2023-11-21T10:12:35;8.20;;;4.22;;
48993;SDS011;34804;49.214;12.276;2023-11-21T10:15:03;8.90;;;3.78;;
48993;SDS011;34804;49.214;12.276;2023-11-21T10:17:35;7.68;;;3.58;;
48993;SDS011;34804;49.214;12.276;2023-11-21T10:20:12;10.82;;;4.13;;
48993;SDS011;34804;49.214;12.276;2023-11-21T10:22:40;6.68;;;3.80;;
48993;SDS011;34804;49.214;12.276;2023-11-21T10:25:08;7.47;;;3.67;;
48993;SDS011;34804;49.214;12.276;2023-11-21T10:27:37;8.32;;;3.58;;
48993;SDS011;34804;49.214;12.276;2023-11-21T10:30:07;7.55;;;3.90;;
48993;SDS011;34804;49.214;12.276;2023-11-21T10:32:40;7.82;;;3.75;;
48993;SDS011;34804;49.214;12.276;2023-11-21T10:35:08;9.10;;;3.85;;
48993;SDS011;34804;49.214;12.276;2023-11-21T10:37:40;7.20;;;3.80;;
48993;SDS011;34804;49.214;12.276;2023-11-21T10:40:07;9.25;;;4.13;;
48993;SDS011;34804;49.214;12.276;2023-11-21T10:42:38;6.47;;;3.60;;
48993;SDS011;34804;49.214;12.276;2023-11-21T10:45:07;7.82;;;3.60;;
48993;SDS011;34804;49.214;12.276;2023-11-21T10:47:41;6.13;;;3.55;;
48993;SDS011;34804;49.214;12.276;2023-11-21T10:50:10;8.38;;;4.28;;
48993;SDS011;34804;49.214;12.276;2023-11-21T10:52:42;5.40;;;2.90;;
48993;SDS011;34804;49.214;12.276;2023-11-21T10:55:17;6.95;;;3.22;;
48993;SDS011;34804;49.214;12.276;2023-11-21T10:57:49;6.55;;;3.20;;
48993;SDS011;34804;49.214;12.276;2023-11-21T11:00:19;8.35;;;3.47;;
48993;SDS011;34804;49.214;12.276;2023-11-21T11:02:49;5.68;;;2.55;;
48993;SDS011;34804;49.214;12.276;2023-11-21T11:05:19;6.32;;;2.97;;
48993;SDS011;34804;49.214;12.276;2023-11-21T11:07:50;5.68;;;2.90;;
48993;SDS011;34804;49.214;12.276;2023-11-21T11:10:21;6.53;;;2.55;;
48993;SDS011;34804;49.214;12.276;2023-11-21T11:12:53;5.75;;;2.50;;
48993;SDS011;34804;49.214;12.276;2023-11-21T11:15:21;7.30;;;3.08;;
48993;SDS011;34804;49.214;12.276;2023-11-21T11:17:49;6.30;;;2.80;;
48993;SDS011;34804;49.214;12.276;2023-11-21T11:20:16;4.80;;;2.67;;
48993;SDS011;34804;49.214;12.276;2023-11-21T11:22:48;6.50;;;2.70;;
48993;SDS011;34804;49.214;12.276;2023-11-21T11:25:32;6.63;;;2.95;;
48993;SDS011;34804;49.214;12.276;2023-11-21T11:28:21;6.05;;;2.70;;
48993;SDS011;34804;49.214;12.276;2023-11-21T11:36:10;5.68;;;3.30;;
48993;SDS011;34804;49.214;12.276;2023-11-21T11:38:44;5.22;;;2.65;;
48993;SDS011;34804;49.214;12.276;2023-11-21T11:41:12;5.85;;;2.65;;
48993;SDS011;34804;49.214;12.276;2023-11-21T11:43:39;5.38;;;2.30;;
48993;SDS011;34804;49.214;12.276;2023-11-21T11:46:11;5.28;;;2.63;;
48993;SDS011;34804;49.214;12.276;2023-11-21T11:48:41;4.50;;;2.20;;
48993;SDS011;34804;49.214;12.276;2023-11-21T11:51:12;5.40;;;2.30;;
48993;SDS011;34804;49.214;12.276;2023-11-21T11:53:41;6.88;;;2.60;;
48993;SDS011;34804;49.214;12.276;2023-11-21T11:56:25;5.63;;;2.30;;
48993;SDS011;34804;49.214;12.276;2023-11-21T11:58:58;4.20;;;1.90;;
48993;SDS011;34804;49.214;12.276;2023-11-21T12:01:29;3.75;;;1.90;;
48993;SDS011;34804;49.214;12.276;2023-11-21T12:07:01;3.83;;;1.85;;
48993;SDS011;34804;49.214;12.276;2023-11-21T12:09:30;4.40;;;2.22;;
48993;SDS011;34804;49.214;12.276;2023-11-21T12:11:58;4.88;;;1.80;;
48993;SDS011;34804;49.214;12.276;2023-11-21T12:14:25;3.97;;;1.83;;
48993;SDS011;34804;49.214;12.276;2023-11-21T12:16:52;3.83;;;1.80;;
48993;SDS011;34804;49.214;12.276;2023-11-21T12:19:20;4.65;;;2.10;;
48993;SDS011;34804;49.214;12.276;2023-11-21T12:21:47;4.85;;;1.85;;
48993;SDS011;34804;49.214;12.276;2023-11-21T12:24:15;4.10;;;2.03;;
48993;SDS011;34804;49.214;12.276;2023-11-21T12:26:43;5.38;;;2.05;;
48993;SDS011;34804;49.214;12.276;2023-11-21T12:29:10;5.70;;;2.10;;
48993;SDS011;34804;49.214;12.276;2023-11-21T12:31:37;5.43;;;2.15;;
48993;SDS011;34804;49.214;12.276;2023-11-21T12:34:04;4.55;;;2.35;;
48993;SDS011;34804;49.214;12.276;2023-11-21T12:36:33;5.05;;;2.00;;
48993;SDS011;34804;49.214;12.276;2023-11-21T12:39:01;4.40;;;2.10;;
48993;SDS011;34804;49.214;12.276;2023-11-21T12:41:29;4.82;;;2.53;;
48993;SDS011;34804;49.214;12.276;2023-11-21T12:43:57;6.13;;;2.30;;
48993;SDS011;34804;49.214;12.276;2023-11-21T12:46:24;6.00;;;2.42;;
48993;SDS011;34804;49.214;12.276;2023-11-21T12:48:55;5.03;;;2.10;;
48993;SDS011;34804;49.214;12.276;2023-11-21T12:51:24;4.78;;;2.28;;
48993;SDS011;34804;49.214;12.276;2023-11-21T12:53:51;5.43;;;2.63;;
48993;SDS011;34804;49.214;12.276;2023-11-21T12:56:20;5.80;;;2.45;;
48993;SDS011;34804;49.214;12.276;2023-11-21T12:58:49;7.47;;;2.35;;
48993;SDS011;34804;49.214;12.276;2023-11-21T13:01:18;6.13;;;2.83;;
48993;SDS011;34804;49.214;12.276;2023-11-21T13:03:48;8.45;;;2.65;;
48993;SDS011;34804;49.214;12.276;2023-11-21T13:06:18;4.03;;;2.10;;
48993;SDS011;34804;49.214;12.276;2023-11-21T13:08:46;5.50;;;2.67;;
48993;SDS011;34804;49.214;12.276;2023-11-21T13:11:13;6.85;;;2.90;;
48993;SDS011;34804;49.214;12.276;2023-11-21T13:13:41;6.00;;;3.50;;
48993;SDS011;34804;49.214;12.276;2023-11-21T13:16:11;6.75;;;2.90;;
48993;SDS011;34804;49.214;12.276;2023-11-21T13:18:39;5.10;;;2.70;;
48993;SDS011;34804;49.214;12.276;2023-11-21T13:21:08;5.78;;;2.70;;
48993;SDS011;34804;49.214;12.276;2023-11-21T13:23:42;5.07;;;2.35;;
48993;SDS011;34804;49.214;12.276;2023-11-21T13:26:12;5.28;;;2.40;;
48993;SDS011;34804;49.214;12.276;2023-11-21T13:28:41;5.40;;;2.70;;
48993;SDS011;34804;49.214;12.276;2023-11-21T13:31:12;6.25;;;2.70;;
48993;SDS011;34804;49.214;12.276;2023-11-21T13:33:58;6.03;;;2.75;;
48993;SDS011;34804;49.214;12.276;2023-11-21T13:36:31;6.18;;;2.80;;
48993;SDS011;34804;49.214;12.276;2023-11-21T13:39:01;5.25;;;2.70;;
48993;SDS011;34804;49.214;12.276;2023-11-21T13:41:34;6.35;;;4.28;;
48993;SDS011;34804;49.214;12.276;2023-11-21T13:44:01;6.53;;;3.28;;
48993;SDS011;34804;49.214;12.276;2023-11-21T13:46:42;7.72;;;3.05;;
48993;SDS011;34804;49.214;12.276;2023-11-21T13:49:10;4.95;;;2.78;;
48993;SDS011;34804;49.214;12.276;2023-11-21T13:51:37;5.82;;;2.90;;
48993;SDS011;34804;49.214;12.276;2023-11-21T13:54:11;4.68;;;2.08;;
48993;SDS011;34804;49.214;12.276;2023-11-21T13:56:38;5.97;;;2.17;;
48993;SDS011;34804;49.214;12.276;2023-11-21T13:59:07;5.50;;;2.17;;
48993;SDS011;34804;49.214;12.276;2023-11-21T14:01:47;5.03;;;2.00;;
48993;SDS011;34804;49.214;12.276;2023-11-21T14:04:22;6.82;;;2.53;;
48993;SDS011;34804;49.214;12.276;2023-11-21T14:07:22;6.45;;;2.45;;
48993;SDS011;34804;49.214;12.276;2023-11-21T14:10:02;4.90;;;2.33;;
48993;SDS011;34804;49.214;12.276;2023-11-21T14:12:30;8.70;;;4.40;;
48993;SDS011;34804;49.214;12.276;2023-11-21T14:15:04;17.13;;;7.25;;
48993;SDS011;34804;49.214;12.276;2023-11-21T14:17:33;5.53;;;3.03;;
48993;SDS011;34804;49.214;12.276;2023-11-21T14:20:02;6.35;;;3.70;;
48993;SDS011;34804;49.214;12.276;2023-11-21T14:22:31;6.60;;;2.53;;
48993;SDS011;34804;49.214;12.276;2023-11-21T14:24:58;5.65;;;2.67;;
48993;SDS011;34804;49.214;12.276;2023-11-21T14:27:30;5.95;;;2.88;;
48993;SDS011;34804;49.214;12.276;2023-11-21T14:29:59;6.65;;;2.75;;
48993;SDS011;34804;49.214;12.276;2023-11-21T14:32:27;6.25;;;2.80;;
48993;SDS011;34804;49.214;12.276;2023-11-21T14:34:54;8.38;;;4.30;;
48993;SDS011;34804;49.214;12.276;2023-11-21T14:37:21;5.82;;;3.28;;
48993;SDS011;34804;49.214;12.276;2023-11-21T14:39:47;6.70;;;3.33;;
48993;SDS011;34804;49.214;12.276;2023-11-21T14:42:16;6.28;;;3.60;;
48993;SDS011;34804;49.214;12.276;2023-11-21T14:44:50;5.53;;;3.13;;
48993;SDS011;34804;49.214;12.276;2023-11-21T14:47:18;5.78;;;3.33;;
48993;SDS011;34804;49.214;12.276;2023-11-21T14:49:51;7.93;;;3.60;;